KMGE

Dobbins Air Reserve Base Airport

Marietta, Georgia, USA
METAR KMGE 261256Z 14004KT 10SM OVC012 23/20 A3000 RMK AO2A SLP151 T02250198 $
Observed Flight Rules
May-26 @ 12:56 UTC (45 minutes ago) Marginal Visual Flight Rules
Wind Visibility Clouds
140° at 4 knots 10 miles
  • Overcast at 1,200' AGL
Temperatures Readings
Current 23°C / 73°F
Dewpoint 20°C / 68°F
Humidity 83%
Altimeter 30" Hg
Pressure 1015.1 hPa
Elevation 326
METAR KMGE 261256Z 14004KT 10SM OVC012 23/20 A3000 RMK AO2A SLP151 T02250198 $
Observed Flight Rules
May-26 @ 12:56 UTC
(45 minutes ago)
MVFR
Wind Visibility
140° at 4 knots 10 miles
Clouds
  • Overcast at 1,200' AGL
Temperature Dewpoint
23°C / 73°F 20°C / 68°F
Humidity Altimeter Pressure
83% 30" Hg 1015.1 hPa